sensor_id;sensor_type;location;lat;lon;timestamp;P1;durP1;ratioP1;P2;durP2;ratioP2
9166;SDS011;4618;48.818;9.088;2023-11-19T00:00:46;1.47;;;1.10;;
9166;SDS011;4618;48.818;9.088;2023-11-19T00:03:11;1.67;;;1.10;;
9166;SDS011;4618;48.818;9.088;2023-11-19T00:05:38;1.90;;;0.80;;
9166;SDS011;4618;48.818;9.088;2023-11-19T00:08:04;1.20;;;1.10;;
9166;SDS011;4618;48.818;9.088;2023-11-19T00:10:31;1.80;;;1.03;;
9166;SDS011;4618;48.818;9.088;2023-11-19T00:12:57;1.30;;;1.03;;
9166;SDS011;4618;48.818;9.088;2023-11-19T00:15:22;1.20;;;1.10;;
9166;SDS011;4618;48.818;9.088;2023-11-19T00:17:49;1.27;;;0.80;;
9166;SDS011;4618;48.818;9.088;2023-11-19T00:20:16;1.27;;;0.90;;
9166;SDS011;4618;48.818;9.088;2023-11-19T00:22:42;1.03;;;0.90;;
9166;SDS011;4618;48.818;9.088;2023-11-19T00:25:08;0.80;;;0.80;;
9166;SDS011;4618;48.818;9.088;2023-11-19T00:27:35;1.67;;;0.90;;
9166;SDS011;4618;48.818;9.088;2023-11-19T00:30:02;1.07;;;0.70;;
9166;SDS011;4618;48.818;9.088;2023-11-19T00:32:30;1.13;;;0.60;;
9166;SDS011;4618;48.818;9.088;2023-11-19T00:34:56;0.67;;;0.57;;
9166;SDS011;4618;48.818;9.088;2023-11-19T00:37:22;0.70;;;0.47;;
9166;SDS011;4618;48.818;9.088;2023-11-19T00:39:47;0.97;;;0.70;;
9166;SDS011;4618;48.818;9.088;2023-11-19T00:42:13;1.00;;;0.60;;
9166;SDS011;4618;48.818;9.088;2023-11-19T00:44:39;0.50;;;0.50;;
9166;SDS011;4618;48.818;9.088;2023-11-19T00:47:04;0.73;;;0.40;;
9166;SDS011;4618;48.818;9.088;2023-11-19T00:49:30;0.57;;;0.57;;
9166;SDS011;4618;48.818;9.088;2023-11-19T00:51:57;0.80;;;0.50;;
9166;SDS011;4618;48.818;9.088;2023-11-19T00:54:23;1.30;;;0.40;;
9166;SDS011;4618;48.818;9.088;2023-11-19T00:56:51;1.53;;;0.40;;
9166;SDS011;4618;48.818;9.088;2023-11-19T00:59:17;0.60;;;0.50;;
9166;SDS011;4618;48.818;9.088;2023-11-19T01:01:43;1.37;;;0.40;;
9166;SDS011;4618;48.818;9.088;2023-11-19T01:04:08;1.60;;;0.50;;
9166;SDS011;4618;48.818;9.088;2023-11-19T01:06:34;0.60;;;0.47;;
9166;SDS011;4618;48.818;9.088;2023-11-19T01:09:00;0.60;;;0.30;;
9166;SDS011;4618;48.818;9.088;2023-11-19T01:11:26;0.30;;;0.30;;
9166;SDS011;4618;48.818;9.088;2023-11-19T01:13:51;0.47;;;0.40;;
9166;SDS011;4618;48.818;9.088;2023-11-19T01:16:17;0.40;;;0.30;;
9166;SDS011;4618;48.818;9.088;2023-11-19T01:18:44;0.50;;;0.37;;
9166;SDS011;4618;48.818;9.088;2023-11-19T01:21:11;0.60;;;0.20;;
9166;SDS011;4618;48.818;9.088;2023-11-19T01:23:37;0.83;;;0.40;;
9166;SDS011;4618;48.818;9.088;2023-11-19T01:26:03;1.13;;;0.20;;
9166;SDS011;4618;48.818;9.088;2023-11-19T01:28:30;0.87;;;0.23;;
9166;SDS011;4618;48.818;9.088;2023-11-19T01:30:56;0.20;;;0.20;;
9166;SDS011;4618;48.818;9.088;2023-11-19T01:33:21;0.40;;;0.30;;
9166;SDS011;4618;48.818;9.088;2023-11-19T01:35:47;1.67;;;0.30;;
9166;SDS011;4618;48.818;9.088;2023-11-19T01:38:12;0.63;;;0.20;;
9166;SDS011;4618;48.818;9.088;2023-11-19T01:40:38;0.27;;;0.20;;
9166;SDS011;4618;48.818;9.088;2023-11-19T01:43:04;0.20;;;0.20;;
9166;SDS011;4618;48.818;9.088;2023-11-19T01:45:30;0.23;;;0.17;;
9166;SDS011;4618;48.818;9.088;2023-11-19T01:47:57;0.10;;;0.10;;
9166;SDS011;4618;48.818;9.088;2023-11-19T01:50:24;0.10;;;0.10;;
9166;SDS011;4618;48.818;9.088;2023-11-19T01:52:53;0.37;;;0.10;;
9166;SDS011;4618;48.818;9.088;2023-11-19T01:55:20;0.50;;;0.20;;
9166;SDS011;4618;48.818;9.088;2023-11-19T01:57:46;0.87;;;0.30;;
9166;SDS011;4618;48.818;9.088;2023-11-19T02:00:14;0.10;;;0.10;;
9166;SDS011;4618;48.818;9.088;2023-11-19T02:02:41;0.57;;;0.10;;
9166;SDS011;4618;48.818;9.088;2023-11-19T02:05:08;0.10;;;0.10;;
9166;SDS011;4618;48.818;9.088;2023-11-19T02:07:34;0.13;;;0.13;;
9166;SDS011;4618;48.818;9.088;2023-11-19T02:09:59;0.30;;;0.17;;
9166;SDS011;4618;48.818;9.088;2023-11-19T02:12:27;0.10;;;0.10;;
9166;SDS011;4618;48.818;9.088;2023-11-19T02:14:53;0.10;;;0.10;;
9166;SDS011;4618;48.818;9.088;2023-11-19T02:19:52;0.20;;;0.20;;
9166;SDS011;4618;48.818;9.088;2023-11-19T02:22:18;0.17;;;0.10;;
9166;SDS011;4618;48.818;9.088;2023-11-19T02:24:45;0.10;;;0.10;;
9166;SDS011;4618;48.818;9.088;2023-11-19T02:27:16;0.20;;;0.20;;
9166;SDS011;4618;48.818;9.088;2023-11-19T02:29:54;0.10;;;0.10;;
9166;SDS011;4618;48.818;9.088;2023-11-19T02:32:19;1.10;;;0.10;;
9166;SDS011;4618;48.818;9.088;2023-11-19T02:34:45;0.40;;;0.00;;
9166;SDS011;4618;48.818;9.088;2023-11-19T02:37:11;0.50;;;0.20;;
9166;SDS011;4618;48.818;9.088;2023-11-19T02:39:37;0.10;;;0.07;;
9166;SDS011;4618;48.818;9.088;2023-11-19T02:42:02;0.27;;;0.10;;
9166;SDS011;4618;48.818;9.088;2023-11-19T02:44:28;0.13;;;0.10;;
9166;SDS011;4618;48.818;9.088;2023-11-19T02:46:55;0.43;;;0.10;;
9166;SDS011;4618;48.818;9.088;2023-11-19T02:49:24;1.40;;;0.20;;
9166;SDS011;4618;48.818;9.088;2023-11-19T02:51:50;0.00;;;0.00;;
9166;SDS011;4618;48.818;9.088;2023-11-19T02:54:15;1.80;;;0.10;;
9166;SDS011;4618;48.818;9.088;2023-11-19T02:56:44;0.20;;;0.10;;
9166;SDS011;4618;48.818;9.088;2023-11-19T02:59:12;0.10;;;0.10;;
9166;SDS011;4618;48.818;9.088;2023-11-19T03:01:52;2.30;;;0.10;;
9166;SDS011;4618;48.818;9.088;2023-11-19T03:04:18;0.60;;;0.13;;
9166;SDS011;4618;48.818;9.088;2023-11-19T03:06:45;0.10;;;0.10;;
9166;SDS011;4618;48.818;9.088;2023-11-19T03:09:11;0.10;;;0.10;;
9166;SDS011;4618;48.818;9.088;2023-11-19T03:11:37;0.10;;;0.10;;
9166;SDS011;4618;48.818;9.088;2023-11-19T03:14:03;1.60;;;0.10;;
9166;SDS011;4618;48.818;9.088;2023-11-19T03:16:29;0.40;;;0.10;;
9166;SDS011;4618;48.818;9.088;2023-11-19T03:18:54;0.33;;;0.10;;
9166;SDS011;4618;48.818;9.088;2023-11-19T03:21:28;0.90;;;0.20;;
9166;SDS011;4618;48.818;9.088;2023-11-19T03:23:54;0.20;;;0.10;;
9166;SDS011;4618;48.818;9.088;2023-11-19T03:26:20;1.20;;;0.10;;
9166;SDS011;4618;48.818;9.088;2023-11-19T03:28:47;2.10;;;0.10;;
9166;SDS011;4618;48.818;9.088;2023-11-19T03:31:12;0.20;;;0.10;;
9166;SDS011;4618;48.818;9.088;2023-11-19T03:33:39;0.20;;;0.10;;
9166;SDS011;4618;48.818;9.088;2023-11-19T03:36:04;0.73;;;0.20;;
9166;SDS011;4618;48.818;9.088;2023-11-19T03:38:31;0.20;;;0.10;;
9166;SDS011;4618;48.818;9.088;2023-11-19T03:40:56;0.73;;;0.10;;
9166;SDS011;4618;48.818;9.088;2023-11-19T03:43:22;0.00;;;0.00;;
9166;SDS011;4618;48.818;9.088;2023-11-19T03:45:47;0.10;;;0.10;;
9166;SDS011;4618;48.818;9.088;2023-11-19T03:48:13;0.87;;;0.20;;
9166;SDS011;4618;48.818;9.088;2023-11-19T03:50:41;0.40;;;0.10;;
9166;SDS011;4618;48.818;9.088;2023-11-19T03:53:07;0.10;;;0.10;;
9166;SDS011;4618;48.818;9.088;2023-11-19T03:55:32;1.13;;;0.10;;
9166;SDS011;4618;48.818;9.088;2023-11-19T03:57:58;0.73;;;0.10;;
9166;SDS011;4618;48.818;9.088;2023-11-19T04:00:23;0.10;;;0.00;;
9166;SDS011;4618;48.818;9.088;2023-11-19T04:02:49;0.40;;;0.10;;
9166;SDS011;4618;48.818;9.088;2023-11-19T04:05:15;0.17;;;0.10;;
9166;SDS011;4618;48.818;9.088;2023-11-19T04:07:40;0.57;;;0.13;;
9166;SDS011;4618;48.818;9.088;2023-11-19T04:10:06;0.10;;;0.10;;
9166;SDS011;4618;48.818;9.088;2023-11-19T04:12:32;0.53;;;0.00;;
9166;SDS011;4618;48.818;9.088;2023-11-19T04:14:57;0.00;;;0.00;;
9166;SDS011;4618;48.818;9.088;2023-11-19T04:17:23;0.00;;;0.00;;
9166;SDS011;4618;48.818;9.088;2023-11-19T04:19:49;0.07;;;0.00;;
9166;SDS011;4618;48.818;9.088;2023-11-19T04:22:14;0.53;;;0.10;;
9166;SDS011;4618;48.818;9.088;2023-11-19T04:24:40;0.30;;;0.10;;
9166;SDS011;4618;48.818;9.088;2023-11-19T04:27:06;0.03;;;0.00;;
9166;SDS011;4618;48.818;9.088;2023-11-19T04:29:31;0.03;;;0.00;;
9166;SDS011;4618;48.818;9.088;2023-11-19T04:31:57;0.00;;;0.00;;
9166;SDS011;4618;48.818;9.088;2023-11-19T04:34:24;0.03;;;0.00;;
9166;SDS011;4618;48.818;9.088;2023-11-19T04:36:49;0.00;;;0.00;;
9166;SDS011;4618;48.818;9.088;2023-11-19T04:39:15;0.00;;;0.00;;
9166;SDS011;4618;48.818;9.088;2023-11-19T04:41:50;0.30;;;0.10;;
9166;SDS011;4618;48.818;9.088;2023-11-19T04:44:18;0.10;;;0.10;;
9166;SDS011;4618;48.818;9.088;2023-11-19T04:46:44;0.20;;;0.10;;
9166;SDS011;4618;48.818;9.088;2023-11-19T04:49:10;0.30;;;0.10;;
9166;SDS011;4618;48.818;9.088;2023-11-19T04:54:09;0.00;;;0.00;;
9166;SDS011;4618;48.818;9.088;2023-11-19T04:56:38;0.00;;;0.00;;
9166;SDS011;4618;48.818;9.088;2023-11-19T04:59:04;0.10;;;0.10;;
9166;SDS011;4618;48.818;9.088;2023-11-19T05:01:30;0.27;;;0.00;;
9166;SDS011;4618;48.818;9.088;2023-11-19T05:03:59;0.00;;;0.00;;
9166;SDS011;4618;48.818;9.088;2023-11-19T05:06:28;1.30;;;0.00;;
9166;SDS011;4618;48.818;9.088;2023-11-19T05:08:55;0.07;;;0.07;;
9166;SDS011;4618;48.818;9.088;2023-11-19T05:11:21;0.00;;;0.00;;
9166;SDS011;4618;48.818;9.088;2023-11-19T05:13:47;0.00;;;0.00;;
9166;SDS011;4618;48.818;9.088;2023-11-19T05:16:13;0.00;;;0.00;;
9166;SDS011;4618;48.818;9.088;2023-11-19T05:18:39;0.00;;;0.00;;
9166;SDS011;4618;48.818;9.088;2023-11-19T05:21:05;0.00;;;0.00;;
9166;SDS011;4618;48.818;9.088;2023-11-19T05:23:32;1.20;;;0.10;;
9166;SDS011;4618;48.818;9.088;2023-11-19T05:25:58;0.20;;;0.00;;
9166;SDS011;4618;48.818;9.088;2023-11-19T05:28:25;0.00;;;0.00;;
9166;SDS011;4618;48.818;9.088;2023-11-19T05:30:51;0.10;;;0.10;;
9166;SDS011;4618;48.818;9.088;2023-11-19T05:33:16;0.10;;;0.10;;
9166;SDS011;4618;48.818;9.088;2023-11-19T05:35:42;1.50;;;0.10;;
9166;SDS011;4618;48.818;9.088;2023-11-19T05:38:08;0.60;;;0.10;;
9166;SDS011;4618;48.818;9.088;2023-11-19T05:40:34;0.30;;;0.10;;
9166;SDS011;4618;48.818;9.088;2023-11-19T05:43:00;0.67;;;0.10;;
9166;SDS011;4618;48.818;9.088;2023-11-19T05:45:26;0.13;;;0.00;;
9166;SDS011;4618;48.818;9.088;2023-11-19T05:47:52;2.90;;;0.10;;
9166;SDS011;4618;48.818;9.088;2023-11-19T05:50:17;0.10;;;0.10;;
9166;SDS011;4618;48.818;9.088;2023-11-19T05:52:43;1.10;;;0.03;;
9166;SDS011;4618;48.818;9.088;2023-11-19T05:55:09;0.53;;;0.10;;
9166;SDS011;4618;48.818;9.088;2023-11-19T05:57:36;0.10;;;0.10;;
9166;SDS011;4618;48.818;9.088;2023-11-19T06:00:02;0.10;;;0.03;;
9166;SDS011;4618;48.818;9.088;2023-11-19T06:02:32;0.20;;;0.10;;
9166;SDS011;4618;48.818;9.088;2023-11-19T06:04:58;0.10;;;0.10;;
9166;SDS011;4618;48.818;9.088;2023-11-19T06:07:23;0.00;;;0.00;;
9166;SDS011;4618;48.818;9.088;2023-11-19T06:09:50;0.53;;;0.10;;
9166;SDS011;4618;48.818;9.088;2023-11-19T06:12:15;0.33;;;0.20;;
9166;SDS011;4618;48.818;9.088;2023-11-19T06:14:41;0.10;;;0.10;;
9166;SDS011;4618;48.818;9.088;2023-11-19T06:17:07;0.00;;;0.00;;
9166;SDS011;4618;48.818;9.088;2023-11-19T06:19:33;0.20;;;0.10;;
9166;SDS011;4618;48.818;9.088;2023-11-19T06:21:59;0.20;;;0.10;;
9166;SDS011;4618;48.818;9.088;2023-11-19T06:24:25;0.37;;;0.10;;
9166;SDS011;4618;48.818;9.088;2023-11-19T06:26:50;0.30;;;0.10;;
9166;SDS011;4618;48.818;9.088;2023-11-19T06:29:16;0.10;;;0.10;;
9166;SDS011;4618;48.818;9.088;2023-11-19T06:31:44;1.00;;;0.10;;
9166;SDS011;4618;48.818;9.088;2023-11-19T06:34:11;1.40;;;0.20;;
9166;SDS011;4618;48.818;9.088;2023-11-19T06:36:37;0.10;;;0.10;;
9166;SDS011;4618;48.818;9.088;2023-11-19T06:39:03;0.10;;;0.10;;
9166;SDS011;4618;48.818;9.088;2023-11-19T06:41:29;0.20;;;0.20;;
9166;SDS011;4618;48.818;9.088;2023-11-19T06:43:54;1.13;;;0.20;;
9166;SDS011;4618;48.818;9.088;2023-11-19T06:46:20;0.20;;;0.20;;
9166;SDS011;4618;48.818;9.088;2023-11-19T06:48:45;0.77;;;0.10;;
9166;SDS011;4618;48.818;9.088;2023-11-19T06:51:11;1.50;;;0.20;;
9166;SDS011;4618;48.818;9.088;2023-11-19T06:53:37;1.10;;;0.27;;
9166;SDS011;4618;48.818;9.088;2023-11-19T06:56:04;0.43;;;0.10;;
9166;SDS011;4618;48.818;9.088;2023-11-19T06:58:35;0.30;;;0.20;;
9166;SDS011;4618;48.818;9.088;2023-11-19T07:01:01;0.10;;;0.10;;
9166;SDS011;4618;48.818;9.088;2023-11-19T07:03:27;0.20;;;0.20;;
9166;SDS011;4618;48.818;9.088;2023-11-19T07:05:52;0.30;;;0.20;;
9166;SDS011;4618;48.818;9.088;2023-11-19T07:08:18;1.50;;;0.20;;
9166;SDS011;4618;48.818;9.088;2023-11-19T07:10:43;0.10;;;0.10;;
9166;SDS011;4618;48.818;9.088;2023-11-19T07:13:09;1.30;;;0.20;;
9166;SDS011;4618;48.818;9.088;2023-11-19T07:15:34;0.33;;;0.17;;
9166;SDS011;4618;48.818;9.088;2023-11-19T07:18:00;0.20;;;0.10;;
9166;SDS011;4618;48.818;9.088;2023-11-19T07:20:26;1.37;;;0.20;;
9166;SDS011;4618;48.818;9.088;2023-11-19T07:22:52;0.63;;;0.20;;
9166;SDS011;4618;48.818;9.088;2023-11-19T07:25:20;0.67;;;0.20;;
9166;SDS011;4618;48.818;9.088;2023-11-19T07:27:50;0.10;;;0.00;;
9166;SDS011;4618;48.818;9.088;2023-11-19T07:30:17;0.17;;;0.00;;
9166;SDS011;4618;48.818;9.088;2023-11-19T07:32:42;0.30;;;0.20;;
9166;SDS011;4618;48.818;9.088;2023-11-19T07:35:08;1.37;;;0.30;;
9166;SDS011;4618;48.818;9.088;2023-11-19T07:37:34;0.20;;;0.20;;
9166;SDS011;4618;48.818;9.088;2023-11-19T07:39:59;0.20;;;0.20;;
9166;SDS011;4618;48.818;9.088;2023-11-19T07:42:25;2.90;;;0.40;;
9166;SDS011;4618;48.818;9.088;2023-11-19T07:44:51;1.33;;;0.20;;
9166;SDS011;4618;48.818;9.088;2023-11-19T07:47:16;1.60;;;0.20;;
9166;SDS011;4618;48.818;9.088;2023-11-19T07:49:42;0.20;;;0.10;;
9166;SDS011;4618;48.818;9.088;2023-11-19T07:52:09;0.37;;;0.10;;
9166;SDS011;4618;48.818;9.088;2023-11-19T07:54:34;0.57;;;0.10;;
9166;SDS011;4618;48.818;9.088;2023-11-19T07:57:00;1.80;;;0.20;;
9166;SDS011;4618;48.818;9.088;2023-11-19T07:59:26;0.40;;;0.23;;
9166;SDS011;4618;48.818;9.088;2023-11-19T08:01:51;0.20;;;0.20;;
9166;SDS011;4618;48.818;9.088;2023-11-19T08:04:17;1.60;;;0.47;;
9166;SDS011;4618;48.818;9.088;2023-11-19T08:06:43;0.60;;;0.30;;
9166;SDS011;4618;48.818;9.088;2023-11-19T08:09:08;0.30;;;0.30;;
9166;SDS011;4618;48.818;9.088;2023-11-19T08:11:39;0.57;;;0.30;;
9166;SDS011;4618;48.818;9.088;2023-11-19T08:14:07;0.20;;;0.20;;
9166;SDS011;4618;48.818;9.088;2023-11-19T08:16:33;0.43;;;0.20;;
9166;SDS011;4618;48.818;9.088;2023-11-19T08:18:59;0.40;;;0.20;;
9166;SDS011;4618;48.818;9.088;2023-11-19T08:21:24;0.30;;;0.30;;
9166;SDS011;4618;48.818;9.088;2023-11-19T08:23:52;0.57;;;0.20;;
9166;SDS011;4618;48.818;9.088;2023-11-19T08:26:17;0.20;;;0.20;;
9166;SDS011;4618;48.818;9.088;2023-11-19T08:28:43;0.80;;;0.20;;
9166;SDS011;4618;48.818;9.088;2023-11-19T08:31:08;0.70;;;0.20;;
9166;SDS011;4618;48.818;9.088;2023-11-19T08:33:34;0.20;;;0.13;;
9166;SDS011;4618;48.818;9.088;2023-11-19T08:36:00;0.20;;;0.20;;
9166;SDS011;4618;48.818;9.088;2023-11-19T08:38:26;1.80;;;0.10;;
9166;SDS011;4618;48.818;9.088;2023-11-19T08:40:51;0.20;;;0.20;;
9166;SDS011;4618;48.818;9.088;2023-11-19T08:43:17;1.17;;;0.20;;
9166;SDS011;4618;48.818;9.088;2023-11-19T08:45:43;1.90;;;0.40;;
9166;SDS011;4618;48.818;9.088;2023-11-19T08:48:08;0.23;;;0.20;;
9166;SDS011;4618;48.818;9.088;2023-11-19T08:50:34;0.30;;;0.20;;
9166;SDS011;4618;48.818;9.088;2023-11-19T08:53:00;0.30;;;0.30;;
9166;SDS011;4618;48.818;9.088;2023-11-19T08:55:25;1.03;;;0.40;;
9166;SDS011;4618;48.818;9.088;2023-11-19T08:57:51;0.60;;;0.20;;
9166;SDS011;4618;48.818;9.088;2023-11-19T09:00:17;1.63;;;0.20;;
9166;SDS011;4618;48.818;9.088;2023-11-19T09:02:43;1.20;;;0.23;;
9166;SDS011;4618;48.818;9.088;2023-11-19T09:05:08;2.27;;;0.20;;
9166;SDS011;4618;48.818;9.088;2023-11-19T09:07:34;0.47;;;0.20;;
9166;SDS011;4618;48.818;9.088;2023-11-19T09:10:00;0.30;;;0.30;;
9166;SDS011;4618;48.818;9.088;2023-11-19T09:12:25;1.50;;;0.40;;
9166;SDS011;4618;48.818;9.088;2023-11-19T09:14:51;0.97;;;0.40;;
9166;SDS011;4618;48.818;9.088;2023-11-19T09:17:16;0.40;;;0.33;;
9166;SDS011;4618;48.818;9.088;2023-11-19T09:19:43;0.63;;;0.30;;
9166;SDS011;4618;48.818;9.088;2023-11-19T09:22:09;0.83;;;0.33;;
9166;SDS011;4618;48.818;9.088;2023-11-19T09:24:34;0.60;;;0.40;;
9166;SDS011;4618;48.818;9.088;2023-11-19T09:27:00;0.30;;;0.30;;
9166;SDS011;4618;48.818;9.088;2023-11-19T09:29:25;1.90;;;0.30;;
9166;SDS011;4618;48.818;9.088;2023-11-19T09:31:51;0.30;;;0.30;;
9166;SDS011;4618;48.818;9.088;2023-11-19T09:34:17;0.30;;;0.30;;
9166;SDS011;4618;48.818;9.088;2023-11-19T09:36:42;0.50;;;0.50;;
9166;SDS011;4618;48.818;9.088;2023-11-19T09:39:10;1.67;;;0.40;;
9166;SDS011;4618;48.818;9.088;2023-11-19T09:41:36;1.93;;;0.40;;
9166;SDS011;4618;48.818;9.088;2023-11-19T09:44:01;0.67;;;0.30;;
9166;SDS011;4618;48.818;9.088;2023-11-19T09:46:27;1.63;;;0.70;;
9166;SDS011;4618;48.818;9.088;2023-11-19T09:48:54;0.40;;;0.40;;
9166;SDS011;4618;48.818;9.088;2023-11-19T09:51:22;0.57;;;0.40;;
9166;SDS011;4618;48.818;9.088;2023-11-19T09:53:48;0.30;;;0.30;;
9166;SDS011;4618;48.818;9.088;2023-11-19T09:56:14;3.93;;;0.40;;
9166;SDS011;4618;48.818;9.088;2023-11-19T09:58:42;0.80;;;0.30;;
9166;SDS011;4618;48.818;9.088;2023-11-19T10:01:07;0.47;;;0.30;;
9166;SDS011;4618;48.818;9.088;2023-11-19T10:03:35;2.93;;;0.30;;
9166;SDS011;4618;48.818;9.088;2023-11-19T10:06:08;0.40;;;0.20;;
9166;SDS011;4618;48.818;9.088;2023-11-19T10:08:38;1.20;;;0.40;;
9166;SDS011;4618;48.818;9.088;2023-11-19T10:11:05;0.60;;;0.20;;
9166;SDS011;4618;48.818;9.088;2023-11-19T10:13:31;2.00;;;0.27;;
9166;SDS011;4618;48.818;9.088;2023-11-19T10:15:57;0.30;;;0.30;;
9166;SDS011;4618;48.818;9.088;2023-11-19T10:18:26;0.43;;;0.30;;
9166;SDS011;4618;48.818;9.088;2023-11-19T10:20:51;0.80;;;0.30;;
9166;SDS011;4618;48.818;9.088;2023-11-19T10:23:18;0.60;;;0.30;;
9166;SDS011;4618;48.818;9.088;2023-11-19T10:25:44;0.43;;;0.23;;
9166;SDS011;4618;48.818;9.088;2023-11-19T10:28:12;0.60;;;0.30;;
9166;SDS011;4618;48.818;9.088;2023-11-19T10:30:41;0.43;;;0.30;;
9166;SDS011;4618;48.818;9.088;2023-11-19T10:33:07;0.30;;;0.30;;
9166;SDS011;4618;48.818;9.088;2023-11-19T10:35:34;0.50;;;0.27;;
9166;SDS011;4618;48.818;9.088;2023-11-19T10:38:17;0.63;;;0.23;;
9166;SDS011;4618;48.818;9.088;2023-11-19T10:40:43;1.80;;;0.40;;
9166;SDS011;4618;48.818;9.088;2023-11-19T10:43:09;1.13;;;0.30;;
9166;SDS011;4618;48.818;9.088;2023-11-19T10:45:38;0.60;;;0.30;;
9166;SDS011;4618;48.818;9.088;2023-11-19T10:48:04;1.37;;;0.30;;
9166;SDS011;4618;48.818;9.088;2023-11-19T10:50:32;0.70;;;0.20;;
9166;SDS011;4618;48.818;9.088;2023-11-19T10:53:02;2.03;;;0.43;;
9166;SDS011;4618;48.818;9.088;2023-11-19T10:55:29;0.33;;;0.20;;
9166;SDS011;4618;48.818;9.088;2023-11-19T10:57:58;1.10;;;0.30;;
9166;SDS011;4618;48.818;9.088;2023-11-19T11:00:25;0.57;;;0.30;;
9166;SDS011;4618;48.818;9.088;2023-11-19T11:02:54;1.43;;;0.30;;
9166;SDS011;4618;48.818;9.088;2023-11-19T11:05:24;0.77;;;0.30;;
9166;SDS011;4618;48.818;9.088;2023-11-19T11:07:51;2.00;;;0.40;;
9166;SDS011;4618;48.818;9.088;2023-11-19T11:10:20;1.07;;;0.27;;
9166;SDS011;4618;48.818;9.088;2023-11-19T11:12:51;2.40;;;0.30;;
9166;SDS011;4618;48.818;9.088;2023-11-19T11:15:22;0.87;;;0.30;;
9166;SDS011;4618;48.818;9.088;2023-11-19T11:17:50;0.93;;;0.30;;
9166;SDS011;4618;48.818;9.088;2023-11-19T11:20:22;1.17;;;0.20;;
9166;SDS011;4618;48.818;9.088;2023-11-19T11:22:57;1.07;;;0.20;;
9166;SDS011;4618;48.818;9.088;2023-11-19T11:25:34;0.60;;;0.30;;
9166;SDS011;4618;48.818;9.088;2023-11-19T11:33:59;0.40;;;0.30;;
9166;SDS011;4618;48.818;9.088;2023-11-19T11:36:37;2.37;;;0.50;;
9166;SDS011;4618;48.818;9.088;2023-11-19T11:39:20;0.90;;;0.50;;
9166;SDS011;4618;48.818;9.088;2023-11-19T11:41:58;0.50;;;0.20;;
9166;SDS011;4618;48.818;9.088;2023-11-19T11:45:02;0.87;;;0.40;;
9166;SDS011;4618;48.818;9.088;2023-11-19T11:50:08;1.00;;;0.40;;
9166;SDS011;4618;48.818;9.088;2023-11-19T11:58:18;1.73;;;0.50;;
9166;SDS011;4618;48.818;9.088;2023-11-19T12:00:45;2.13;;;0.40;;
9166;SDS011;4618;48.818;9.088;2023-11-19T12:03:12;1.17;;;0.40;;
9166;SDS011;4618;48.818;9.088;2023-11-19T12:05:38;2.90;;;0.40;;
9166;SDS011;4618;48.818;9.088;2023-11-19T12:08:10;1.43;;;0.40;;
9166;SDS011;4618;48.818;9.088;2023-11-19T12:10:43;0.67;;;0.37;;
9166;SDS011;4618;48.818;9.088;2023-11-19T12:13:12;0.97;;;0.30;;
9166;SDS011;4618;48.818;9.088;2023-11-19T12:18:29;1.17;;;0.30;;
9166;SDS011;4618;48.818;9.088;2023-11-19T12:20:59;1.30;;;0.40;;
9166;SDS011;4618;48.818;9.088;2023-11-19T12:23:28;2.23;;;0.30;;
9166;SDS011;4618;48.818;9.088;2023-11-19T12:25:55;0.60;;;0.40;;
9166;SDS011;4618;48.818;9.088;2023-11-19T12:28:21;2.03;;;0.33;;
9166;SDS011;4618;48.818;9.088;2023-11-19T12:30:49;0.53;;;0.20;;
9166;SDS011;4618;48.818;9.088;2023-11-19T12:33:14;0.83;;;0.60;;
9166;SDS011;4618;48.818;9.088;2023-11-19T12:35:41;0.73;;;0.37;;
9166;SDS011;4618;48.818;9.088;2023-11-19T12:38:24;1.07;;;0.30;;
9166;SDS011;4618;48.818;9.088;2023-11-19T12:41:11;0.83;;;0.30;;
9166;SDS011;4618;48.818;9.088;2023-11-19T12:43:37;0.70;;;0.40;;
9166;SDS011;4618;48.818;9.088;2023-11-19T12:46:03;0.40;;;0.40;;
9166;SDS011;4618;48.818;9.088;2023-11-19T12:48:46;2.20;;;0.70;;
9166;SDS011;4618;48.818;9.088;2023-11-19T12:51:12;0.73;;;0.30;;
9166;SDS011;4618;48.818;9.088;2023-11-19T12:53:47;1.53;;;0.30;;
9166;SDS011;4618;48.818;9.088;2023-11-19T12:56:19;1.40;;;0.30;;
9166;SDS011;4618;48.818;9.088;2023-11-19T12:58:46;0.87;;;0.30;;
9166;SDS011;4618;48.818;9.088;2023-11-19T13:01:15;2.23;;;0.30;;
9166;SDS011;4618;48.818;9.088;2023-11-19T13:03:45;0.90;;;0.30;;
9166;SDS011;4618;48.818;9.088;2023-11-19T13:06:12;1.13;;;0.40;;
9166;SDS011;4618;48.818;9.088;2023-11-19T13:11:15;3.20;;;0.40;;
9166;SDS011;4618;48.818;9.088;2023-11-19T13:14:04;3.97;;;0.40;;
9166;SDS011;4618;48.818;9.088;2023-11-19T13:16:30;2.10;;;0.27;;
9166;SDS011;4618;48.818;9.088;2023-11-19T13:18:57;1.23;;;0.40;;
9166;SDS011;4618;48.818;9.088;2023-11-19T13:21:24;2.17;;;0.37;;
9166;SDS011;4618;48.818;9.088;2023-11-19T13:23:50;1.83;;;0.30;;
9166;SDS011;4618;48.818;9.088;2023-11-19T13:26:15;0.70;;;0.30;;
9166;SDS011;4618;48.818;9.088;2023-11-19T13:28:41;1.83;;;0.40;;
9166;SDS011;4618;48.818;9.088;2023-11-19T13:31:07;1.93;;;0.40;;
9166;SDS011;4618;48.818;9.088;2023-11-19T13:33:33;0.97;;;0.40;;
9166;SDS011;4618;48.818;9.088;2023-11-19T13:35:59;0.37;;;0.20;;
9166;SDS011;4618;48.818;9.088;2023-11-19T13:38:30;1.07;;;0.30;;
9166;SDS011;4618;48.818;9.088;2023-11-19T13:41:00;1.10;;;0.27;;
9166;SDS011;4618;48.818;9.088;2023-11-19T13:43:26;2.87;;;0.50;;
9166;SDS011;4618;48.818;9.088;2023-11-19T13:45:53;0.67;;;0.40;;
9166;SDS011;4618;48.818;9.088;2023-11-19T13:48:19;1.53;;;0.20;;
9166;SDS011;4618;48.818;9.088;2023-11-19T13:50:45;2.53;;;0.20;;
9166;SDS011;4618;48.818;9.088;2023-11-19T13:53:10;0.60;;;0.30;;
9166;SDS011;4618;48.818;9.088;2023-11-19T13:55:36;0.87;;;0.30;;
9166;SDS011;4618;48.818;9.088;2023-11-19T13:58:02;0.63;;;0.40;;
9166;SDS011;4618;48.818;9.088;2023-11-19T14:00:27;1.50;;;0.30;;
9166;SDS011;4618;48.818;9.088;2023-11-19T14:02:53;0.83;;;0.40;;
9166;SDS011;4618;48.818;9.088;2023-11-19T14:05:18;1.70;;;0.20;;
9166;SDS011;4618;48.818;9.088;2023-11-19T14:07:44;2.97;;;0.40;;
9166;SDS011;4618;48.818;9.088;2023-11-19T14:10:13;0.70;;;0.30;;
9166;SDS011;4618;48.818;9.088;2023-11-19T14:12:40;2.40;;;0.30;;
9166;SDS011;4618;48.818;9.088;2023-11-19T14:15:07;0.70;;;0.30;;
9166;SDS011;4618;48.818;9.088;2023-11-19T14:17:42;0.60;;;0.30;;
9166;SDS011;4618;48.818;9.088;2023-11-19T14:20:07;0.53;;;0.30;;
9166;SDS011;4618;48.818;9.088;2023-11-19T14:22:43;0.73;;;0.20;;
9166;SDS011;4618;48.818;9.088;2023-11-19T14:25:13;2.73;;;0.43;;
9166;SDS011;4618;48.818;9.088;2023-11-19T14:27:40;1.93;;;0.60;;
9166;SDS011;4618;48.818;9.088;2023-11-19T14:30:10;1.97;;;0.70;;
9166;SDS011;4618;48.818;9.088;2023-11-19T14:32:38;1.13;;;0.40;;
9166;SDS011;4618;48.818;9.088;2023-11-19T14:35:05;1.03;;;0.37;;
9166;SDS011;4618;48.818;9.088;2023-11-19T14:37:32;0.50;;;0.30;;
9166;SDS011;4618;48.818;9.088;2023-11-19T14:39:58;0.20;;;0.20;;
9166;SDS011;4618;48.818;9.088;2023-11-19T14:42:25;1.53;;;0.50;;
9166;SDS011;4618;48.818;9.088;2023-11-19T14:44:51;0.90;;;0.40;;
9166;SDS011;4618;48.818;9.088;2023-11-19T14:47:18;1.07;;;0.30;;
9166;SDS011;4618;48.818;9.088;2023-11-19T14:49:44;1.07;;;0.50;;
9166;SDS011;4618;48.818;9.088;2023-11-19T14:52:09;0.43;;;0.43;;
9166;SDS011;4618;48.818;9.088;2023-11-19T14:54:36;1.53;;;0.43;;
9166;SDS011;4618;48.818;9.088;2023-11-19T14:57:03;0.90;;;0.30;;
9166;SDS011;4618;48.818;9.088;2023-11-19T14:59:29;2.40;;;0.60;;
9166;SDS011;4618;48.818;9.088;2023-11-19T15:01:55;2.00;;;0.50;;
9166;SDS011;4618;48.818;9.088;2023-11-19T15:04:20;1.13;;;0.30;;
9166;SDS011;4618;48.818;9.088;2023-11-19T15:06:46;0.50;;;0.33;;
9166;SDS011;4618;48.818;9.088;2023-11-19T15:09:11;0.97;;;0.43;;
9166;SDS011;4618;48.818;9.088;2023-11-19T15:11:43;0.67;;;0.30;;
9166;SDS011;4618;48.818;9.088;2023-11-19T15:14:10;0.90;;;0.30;;
9166;SDS011;4618;48.818;9.088;2023-11-19T15:16:39;2.10;;;0.43;;
9166;SDS011;4618;48.818;9.088;2023-11-19T15:19:05;1.93;;;0.40;;
9166;SDS011;4618;48.818;9.088;2023-11-19T15:21:33;0.73;;;0.30;;
9166;SDS011;4618;48.818;9.088;2023-11-19T15:23:58;3.27;;;0.60;;
9166;SDS011;4618;48.818;9.088;2023-11-19T15:26:24;0.33;;;0.20;;
9166;SDS011;4618;48.818;9.088;2023-11-19T15:28:50;0.60;;;0.30;;
9166;SDS011;4618;48.818;9.088;2023-11-19T15:31:16;0.73;;;0.30;;
9166;SDS011;4618;48.818;9.088;2023-11-19T15:33:42;1.83;;;0.50;;
9166;SDS011;4618;48.818;9.088;2023-11-19T15:36:08;2.03;;;0.43;;
9166;SDS011;4618;48.818;9.088;2023-11-19T15:38:34;1.30;;;0.37;;